createdAt,value
2023-03-11T00:00:49.370Z,96786.88
2023-03-11T00:03:20.525Z,96793.38
2023-03-11T00:05:49.167Z,96835.03
2023-03-11T00:08:21.233Z,96801.16
2023-03-11T00:10:59.275Z,96784.22
2023-03-11T00:13:28.941Z,96815.44
2023-03-11T00:15:58.241Z,96814.22
2023-03-11T00:18:31.562Z,96806.06
2023-03-11T00:21:01.277Z,96798.31
2023-03-11T00:23:29.921Z,96799.72
2023-03-11T00:26:00.034Z,96759.47
2023-03-11T00:28:28.529Z,96798.47
2023-03-11T00:30:56.592Z,96786.03
2023-03-11T00:33:25.088Z,96746.03
2023-03-11T00:35:53.297Z,96754.59
2023-03-11T00:38:22.678Z,96776.00
2023-03-11T00:40:51.618Z,96731.69
2023-03-11T00:43:19.668Z,96779.50
2023-03-11T00:45:47.883Z,96779.09
2023-03-11T00:48:16.492Z,96776.63
2023-03-11T00:50:44.855Z,96738.44
2023-03-11T00:53:12.998Z,96779.69
2023-03-11T00:55:41.381Z,96770.28
2023-03-11T00:58:13.282Z,96773.56
2023-03-11T01:00:46.682Z,96759.88
2023-03-11T01:03:15.391Z,96762.75
2023-03-11T01:05:43.449Z,96750.50
2023-03-11T01:08:11.870Z,96752.97
2023-03-11T01:10:39.955Z,96681.06
2023-03-11T01:13:08.281Z,96751.94
2023-03-11T01:15:38.252Z,96764.56
2023-03-11T01:18:07.790Z,96766.81
2023-03-11T01:20:38.704Z,96768.47
2023-03-11T01:23:08.954Z,96758.44
2023-03-11T01:25:37.313Z,96710.06
2023-03-11T01:28:05.886Z,96748.22
2023-03-11T01:30:36.333Z,96752.91
2023-03-11T01:33:06.044Z,96753.53
2023-03-11T01:35:35.848Z,96744.53
2023-03-11T01:38:03.810Z,96729.44
2023-03-11T01:40:46.070Z,96717.44
2023-03-11T01:43:43.339Z,96730.69
2023-03-11T01:46:28.207Z,96735.78
2023-03-11T01:49:00.240Z,96741.28
2023-03-11T01:51:38.675Z,96730.06
2023-03-11T01:54:14.683Z,96684.13
2023-03-11T01:56:44.737Z,96726.81
2023-03-11T01:59:19.480Z,96717.03
2023-03-11T02:02:05.322Z,96720.69
2023-03-11T02:04:36.206Z,96718.22
2023-03-11T02:07:07.668Z,96718.63
2023-03-11T02:09:36.026Z,96710.91
2023-03-11T02:12:06.763Z,96664.19
2023-03-11T02:14:36.740Z,96706.47
2023-03-11T02:17:04.858Z,96711.13
2023-03-11T02:20:15.082Z,96698.13
2023-03-11T02:22:44.061Z,96674.66
2023-03-11T02:25:32.781Z,96699.75
2023-03-11T02:28:03.679Z,96700.78
2023-03-11T02:30:34.812Z,96651.34
2023-03-11T02:33:04.724Z,96675.47
2023-03-11T02:35:33.410Z,96638.09
2023-03-11T02:38:01.970Z,96613.44
2023-03-11T02:40:42.025Z,96695.84
2023-03-11T02:43:18.266Z,96686.28
2023-03-11T02:45:48.869Z,96652.16
2023-03-11T02:48:17.784Z,96685.47
2023-03-11T02:50:47.670Z,96638.72
2023-03-11T02:53:18.835Z,96673.84
2023-03-11T02:55:47.906Z,96678.94
2023-03-11T02:58:16.024Z,96678.72
2023-03-11T03:00:43.968Z,96682.00
2023-03-11T03:03:12.885Z,96669.75
2023-03-11T03:05:42.025Z,96677.13
2023-03-11T03:08:10.056Z,96662.41
2023-03-11T03:10:38.110Z,96658.34
2023-03-11T03:13:06.847Z,96667.91
2023-03-11T03:15:35.087Z,96654.88
2023-03-11T03:18:03.389Z,96661.22
2023-03-11T03:20:31.691Z,96662.00
2023-03-11T03:23:02.804Z,96662.84
2023-03-11T03:25:33.320Z,96662.63
2023-03-11T03:28:05.523Z,96655.88
2023-03-11T03:30:36.950Z,96602.41
2023-03-11T03:33:05.952Z,96655.44
2023-03-11T03:35:34.698Z,96650.13
2023-03-11T03:38:14.208Z,96644.44
2023-03-11T03:40:48.004Z,96655.44
2023-03-11T03:43:19.558Z,96604.44
2023-03-11T03:45:59.796Z,96654.00
2023-03-11T03:48:31.806Z,96648.50
2023-03-11T03:51:07.950Z,96642.41
2023-03-11T03:53:38.070Z,96644.03
2023-03-11T03:56:10.140Z,96643.19
2023-03-11T03:58:40.201Z,96647.28
2023-03-11T04:01:11.914Z,96642.00
2023-03-11T04:03:41.398Z,96626.25
2023-03-11T04:06:24.115Z,96632.38
2023-03-11T04:08:58.048Z,96640.13
2023-03-11T04:11:32.410Z,96601.19
2023-03-11T04:14:03.967Z,96636.91
2023-03-11T04:16:34.181Z,96630.56
2023-03-11T04:19:07.843Z,96630.34
2023-03-11T04:21:37.036Z,96619.34
2023-03-11T04:24:06.088Z,96619.75
2023-03-11T04:26:37.788Z,96627.28
2023-03-11T04:29:09.154Z,96614.66
2023-03-11T04:31:43.122Z,96587.16
2023-03-11T04:34:11.274Z,96613.47
2023-03-11T04:36:40.728Z,96603.25
2023-03-11T04:39:09.129Z,96611.59
2023-03-11T04:41:42.556Z,96613.88
2023-03-11T04:44:13.508Z,96565.97
2023-03-11T04:46:41.492Z,96598.75
2023-03-11T04:49:10.752Z,96610.19
2023-03-11T04:51:39.404Z,96568.59
2023-03-11T04:54:09.167Z,96615.13
2023-03-11T04:56:37.111Z,96609.75
2023-03-11T04:59:06.735Z,96609.34
2023-03-11T05:01:37.201Z,96615.69
2023-03-11T05:04:08.714Z,96614.88
2023-03-11T05:06:36.894Z,96477.91
2023-03-11T05:09:05.919Z,96589.00
2023-03-11T05:11:38.646Z,96559.44
2023-03-11T05:14:07.979Z,96594.69
2023-03-11T05:16:36.267Z,96561.25
2023-03-11T05:19:24.502Z,96593.47
2023-03-11T05:21:52.985Z,96585.72
2023-03-11T05:24:21.104Z,96588.16
2023-03-11T05:26:49.782Z,96587.34
2023-03-11T05:29:18.353Z,96597.56
2023-03-11T05:31:47.288Z,96596.94
2023-03-11T05:34:17.159Z,96584.06
2023-03-11T05:36:45.442Z,96590.41
2023-03-11T05:39:15.054Z,96593.47
2023-03-11T05:41:43.420Z,96591.44
2023-03-11T05:44:11.518Z,96593.25
2023-03-11T05:46:39.730Z,96599.38
2023-03-11T05:49:10.840Z,96581.63
2023-03-11T05:51:39.144Z,96540.88
2023-03-11T05:54:15.347Z,96588.16
2023-03-11T05:56:47.945Z,96595.28
2023-03-11T05:59:18.260Z,96547.22
2023-03-11T06:01:50.289Z,96555.94
2023-03-11T06:04:19.141Z,96596.75
2023-03-11T06:06:47.250Z,96583.66
2023-03-11T06:09:17.978Z,96604.47
2023-03-11T06:11:46.690Z,96555.38
2023-03-11T06:14:17.307Z,96609.56
2023-03-11T06:16:49.398Z,96565.13
2023-03-11T06:19:20.488Z,96605.28
2023-03-11T06:21:52.516Z,96612.03
2023-03-11T06:24:20.649Z,96617.13
2023-03-11T06:26:53.217Z,96619.13
2023-03-11T06:29:26.759Z,96614.25
2023-03-11T06:31:56.406Z,96567.78
2023-03-11T06:34:24.408Z,96615.25
2023-03-11T06:36:54.847Z,96613.44
2023-03-11T06:39:23.742Z,96547.38
2023-03-11T06:41:53.280Z,96603.44
2023-03-11T06:44:21.835Z,96608.75
2023-03-11T06:46:50.164Z,96608.13
2023-03-11T06:49:19.358Z,96565.72
2023-03-11T06:51:47.497Z,96611.41
2023-03-11T06:54:17.559Z,96564.94
2023-03-11T06:56:46.243Z,96559.84
2023-03-11T06:59:15.991Z,96578.97
2023-03-11T07:01:44.732Z,96576.53
2023-03-11T07:04:12.851Z,96621.59
2023-03-11T07:06:43.775Z,96607.13
2023-03-11T07:09:58.037Z,96609.78
2023-03-11T07:12:26.264Z,96626.28
2023-03-11T07:15:00.308Z,96631.38
2023-03-11T07:17:30.571Z,96625.25
2023-03-11T07:19:59.359Z,96630.78
2023-03-11T07:22:27.639Z,96634.63
2023-03-11T07:24:55.683Z,96632.38
2023-03-11T07:27:24.152Z,96637.47
2023-03-11T07:29:52.255Z,96629.53
2023-03-11T07:32:20.569Z,96630.56
2023-03-11T07:34:48.756Z,96636.88
2023-03-11T07:37:17.069Z,96620.13
2023-03-11T07:39:45.955Z,96631.16
2023-03-11T07:42:14.050Z,96631.72
2023-03-11T07:44:42.259Z,96631.34
2023-03-11T07:47:10.357Z,96627.84
2023-03-11T07:49:40.081Z,96632.34
2023-03-11T07:52:11.167Z,96629.28
2023-03-11T07:54:39.225Z,96626.81
2023-03-11T07:57:08.841Z,96614.19
2023-03-11T07:59:36.956Z,96581.94
2023-03-11T08:02:05.042Z,96616.63
2023-03-11T08:04:33.144Z,96617.84
2023-03-11T08:07:01.214Z,96634.34
2023-03-11T08:09:29.218Z,96623.13
2023-03-11T08:11:57.455Z,96626.19
2023-03-11T08:14:25.724Z,96633.94
2023-03-11T08:16:54.542Z,96641.25
2023-03-11T08:19:22.532Z,96635.59
2023-03-11T08:21:51.552Z,96641.88
2023-03-11T08:24:19.810Z,96588.41
2023-03-11T08:26:48.045Z,96645.94
2023-03-11T08:29:16.402Z,96645.72
2023-03-11T08:31:44.835Z,96651.63
2023-03-11T08:34:13.982Z,96644.28
2023-03-11T08:36:42.569Z,96638.75
2023-03-11T08:39:10.881Z,96628.31
2023-03-11T08:41:39.119Z,96648.66
2023-03-11T08:44:07.628Z,96650.97
2023-03-11T08:46:38.763Z,96656.03
2023-03-11T08:49:10.711Z,96606.06
2023-03-11T08:51:39.800Z,96642.84
2023-03-11T08:54:08.734Z,96656.13
2023-03-11T08:56:37.052Z,96651.44
2023-03-11T08:59:05.334Z,96629.19
2023-03-11T09:01:33.788Z,96666.28
2023-03-11T09:04:05.031Z,96675.38
2023-03-11T09:06:33.331Z,96661.34
2023-03-11T09:09:01.473Z,96659.50
2023-03-11T09:11:30.233Z,96666.38
2023-03-11T09:13:59.350Z,96662.56
2023-03-11T09:16:27.666Z,96655.44
2023-03-11T09:18:56.000Z,96670.09
2023-03-11T09:21:24.576Z,96638.81
2023-03-11T09:23:52.721Z,96686.41
2023-03-11T09:26:22.115Z,96680.69
2023-03-11T09:28:50.311Z,96685.38
2023-03-11T09:31:19.256Z,96704.16
2023-03-11T09:33:48.605Z,96688.91
2023-03-11T09:36:20.985Z,96701.56
2023-03-11T09:38:49.623Z,96630.13
2023-03-11T09:41:17.698Z,96701.34
2023-03-11T09:44:23.762Z,96692.34
2023-03-11T09:47:16.129Z,96700.25
2023-03-11T09:49:50.686Z,96684.16
2023-03-11T09:52:45.981Z,96694.31
2023-03-11T09:55:32.335Z,96699.53
2023-03-11T09:58:36.181Z,96687.84
2023-03-11T10:01:21.456Z,96665.78
2023-03-11T10:03:53.421Z,96702.16
2023-03-11T10:06:29.749Z,96592.19
2023-03-11T10:09:19.665Z,96700.34
2023-03-11T10:11:50.881Z,96711.16
2023-03-11T10:14:51.372Z,96708.81
2023-03-11T10:17:37.519Z,96673.28
2023-03-11T10:20:27.922Z,96686.53
2023-03-11T10:23:21.694Z,96720.56
2023-03-11T10:26:33.024Z,96717.22
2023-03-11T10:29:28.180Z,96735.03
2023-03-11T10:32:56.005Z,96726.78
2023-03-11T10:35:35.548Z,96739.69
2023-03-11T10:38:43.459Z,96725.13
2023-03-11T10:41:44.656Z,96739.16
2023-03-11T10:44:24.143Z,96738.50
2023-03-11T10:46:52.868Z,96727.22
2023-03-11T10:49:21.153Z,96714.56
2023-03-11T10:51:52.968Z,96725.34
2023-03-11T10:54:46.653Z,96729.13
2023-03-11T10:57:29.988Z,96748.03
2023-03-11T11:00:01.338Z,96753.41
2023-03-11T11:02:43.700Z,96739.31
2023-03-11T11:05:18.360Z,96754.75
2023-03-11T11:07:55.679Z,96724.94
2023-03-11T11:10:27.539Z,96723.13
2023-03-11T11:13:02.138Z,96766.16
2023-03-11T11:15:43.536Z,96763.97
2023-03-11T11:18:23.975Z,96757.78
2023-03-11T11:21:37.519Z,96758.88
2023-03-11T11:24:22.973Z,96774.97
2023-03-11T11:27:54.396Z,96775.56
2023-03-11T11:30:23.937Z,96777.16
2023-03-11T11:32:54.170Z,96776.31
2023-03-11T11:35:25.308Z,96765.69
2023-03-11T11:38:01.410Z,96786.72
2023-03-11T11:40:33.171Z,96742.94
2023-03-11T11:43:14.876Z,96795.69
2023-03-11T11:46:06.018Z,96797.44
2023-03-11T11:48:37.393Z,96768.50
2023-03-11T11:51:48.050Z,96810.09
2023-03-11T11:54:40.535Z,96807.25
2023-03-11T11:57:19.635Z,96783.78
2023-03-11T11:59:48.717Z,96786.78
2023-03-11T12:02:19.942Z,96821.16
2023-03-11T12:05:13.274Z,96822.13
2023-03-11T12:08:06.954Z,96826.47
2023-03-11T12:11:17.141Z,96826.94
2023-03-11T12:14:28.910Z,96789.47
2023-03-11T12:17:03.862Z,96838.56
2023-03-11T12:19:54.400Z,96835.50
2023-03-11T12:23:05.156Z,96844.88
2023-03-11T12:25:39.337Z,96837.25
2023-03-11T12:28:35.793Z,96853.25
2023-03-11T12:31:10.507Z,96852.63
2023-03-11T12:34:03.315Z,96855.44
2023-03-11T12:36:39.429Z,96823.34
2023-03-11T12:39:20.876Z,96865.19
2023-03-11T12:41:49.038Z,96828.69
2023-03-11T12:44:30.667Z,96879.31
2023-03-11T12:46:59.200Z,96873.09
2023-03-11T12:49:44.031Z,96889.09
2023-03-11T12:52:12.310Z,96894.19
2023-03-11T12:54:46.592Z,96901.63
2023-03-11T12:57:18.233Z,96905.53
2023-03-11T13:00:10.162Z,96909.84
2023-03-11T13:02:56.380Z,96922.22
2023-03-11T13:05:58.227Z,96918.28
2023-03-11T13:08:46.250Z,96860.72
2023-03-11T13:11:34.090Z,96928.69
2023-03-11T13:14:31.215Z,96929.00
2023-03-11T13:17:31.222Z,96922.50
2023-03-11T13:19:59.937Z,96935.00
2023-03-11T13:23:03.425Z,96918.56
2023-03-11T13:25:53.680Z,96969.31
2023-03-11T13:28:55.325Z,96973.44
2023-03-11T13:31:44.429Z,96979.00
2023-03-11T13:34:17.644Z,96976.22
2023-03-11T13:37:27.020Z,96950.56
2023-03-11T13:40:14.967Z,97004.63
2023-03-11T13:42:51.245Z,96953.81
2023-03-11T13:45:40.394Z,96938.06
2023-03-11T13:48:58.202Z,96960.69
2023-03-11T13:51:42.575Z,96980.91
2023-03-11T13:54:27.918Z,97019.97
2023-03-11T13:57:03.068Z,97036.25
2023-03-11T13:59:35.396Z,97035.06
2023-03-11T14:02:21.407Z,96979.16
2023-03-11T14:05:05.842Z,96996.66
2023-03-11T14:07:37.830Z,97035.66
2023-03-11T14:10:12.395Z,97071.28
2023-03-11T14:12:40.484Z,97071.72
2023-03-11T14:15:18.084Z,97078.03
2023-03-11T14:17:48.852Z,97081.06
2023-03-11T14:20:22.684Z,97090.50
2023-03-11T14:22:55.230Z,97105.53
2023-03-11T14:25:31.369Z,97075.63
2023-03-11T14:28:04.987Z,97115.78
2023-03-11T14:30:35.264Z,97125.69
2023-03-11T14:33:22.313Z,97062.38
2023-03-11T14:36:00.084Z,97118.84
2023-03-11T14:38:33.351Z,97150.97
2023-03-11T14:41:08.702Z,97128.53
2023-03-11T14:43:41.447Z,97184.25
2023-03-11T14:46:22.836Z,97193.06
2023-03-11T14:48:53.081Z,97197.69
2023-03-11T14:51:33.548Z,97218.97
2023-03-11T14:54:24.577Z,97225.56
2023-03-11T14:57:07.202Z,97239.09
2023-03-11T14:59:37.979Z,97240.06
2023-03-11T15:02:43.439Z,97271.78
2023-03-11T15:05:36.048Z,97252.56
2023-03-11T15:08:08.566Z,97200.25
2023-03-11T15:10:37.383Z,97284.88
2023-03-11T15:13:13.726Z,97198.72
2023-03-11T15:15:46.251Z,97284.91
2023-03-11T15:18:25.540Z,97280.91
2023-03-11T15:21:16.495Z,97297.59
2023-03-11T15:24:07.712Z,97309.16
2023-03-11T15:26:38.411Z,97273.13
2023-03-11T15:29:17.735Z,97302.19
2023-03-11T15:31:49.255Z,97312.22
2023-03-11T15:34:17.679Z,97345.56
2023-03-11T15:36:57.301Z,97316.63
2023-03-11T15:39:46.633Z,97319.81
2023-03-11T15:42:21.530Z,97317.06
2023-03-11T15:45:23.646Z,97371.88
2023-03-11T15:47:52.225Z,97372.28
2023-03-11T15:50:40.088Z,97353.53
2023-03-11T15:53:15.995Z,97363.31
2023-03-11T15:55:45.323Z,97406.97
2023-03-11T15:58:19.250Z,97405.63
2023-03-11T16:00:56.535Z,97392.09
2023-03-11T16:03:25.650Z,97433.28
2023-03-11T16:05:54.022Z,97433.44
2023-03-11T16:08:22.468Z,97332.03
2023-03-11T16:10:50.721Z,97460.53
2023-03-11T16:13:20.572Z,97450.59
2023-03-11T16:15:49.311Z,97457.72
2023-03-11T16:18:19.059Z,97462.25
2023-03-11T16:20:50.893Z,97441.41
2023-03-11T16:23:19.749Z,97499.44
2023-03-11T16:25:49.522Z,97486.63
2023-03-11T16:28:18.874Z,97491.31
2023-03-11T16:30:50.113Z,97500.69
2023-03-11T16:33:18.499Z,97518.03
2023-03-11T16:35:47.077Z,97513.38
2023-03-11T16:38:17.548Z,97534.84
2023-03-11T16:40:54.952Z,97523.91
2023-03-11T16:43:23.581Z,97534.22
2023-03-11T16:45:54.027Z,97546.06
2023-03-11T16:48:25.675Z,97507.34
2023-03-11T16:50:54.728Z,97536.06
2023-03-11T16:53:25.491Z,97568.91
2023-03-11T16:55:54.834Z,97583.38
2023-03-11T16:58:23.505Z,97578.97
2023-03-11T17:00:52.694Z,97590.00
2023-03-11T17:03:22.033Z,97606.22
2023-03-11T17:05:50.999Z,97576.03
2023-03-11T17:08:19.214Z,97618.84
2023-03-11T17:10:47.828Z,97601.34
2023-03-11T17:13:18.949Z,97583.84
2023-03-11T17:16:01.810Z,97642.63
2023-03-11T17:18:30.181Z,97620.63
2023-03-11T17:20:58.270Z,97660.16
2023-03-11T17:23:27.479Z,97656.94
2023-03-11T17:25:55.734Z,97636.81
2023-03-11T17:28:24.358Z,97626.03
2023-03-11T17:30:53.062Z,97633.38
2023-03-11T17:33:21.616Z,97574.44
2023-03-11T17:35:50.612Z,97679.66
2023-03-11T17:38:19.020Z,97682.50
2023-03-11T17:40:47.236Z,97695.03
2023-03-11T17:43:15.822Z,97673.34
2023-03-11T17:45:44.297Z,97693.53
2023-03-11T17:48:12.833Z,97717.50
2023-03-11T17:50:42.411Z,97722.88
2023-03-11T17:53:11.219Z,97730.13
2023-03-11T17:55:45.339Z,97714.34
2023-03-11T17:58:14.143Z,97740.81
2023-03-11T18:00:42.606Z,97720.66
2023-03-11T18:03:11.070Z,97727.66
2023-03-11T18:06:01.536Z,97720.66
2023-03-11T18:08:31.062Z,97719.78
2023-03-11T18:11:05.215Z,97760.94
2023-03-11T18:13:36.441Z,97775.69
2023-03-11T18:16:23.850Z,97737.00
2023-03-11T18:18:52.746Z,97731.19
2023-03-11T18:21:25.460Z,97771.50
2023-03-11T18:24:00.018Z,97777.81
2023-03-11T18:26:30.786Z,97754.94
2023-03-11T18:29:00.584Z,97777.94
2023-03-11T18:31:30.996Z,97778.41
2023-03-11T18:34:04.989Z,97791.47
2023-03-11T18:36:36.834Z,97748.13
2023-03-11T18:39:06.898Z,97801.22
2023-03-11T18:41:36.219Z,97837.22
2023-03-11T18:44:04.910Z,97821.78
2023-03-11T18:46:33.705Z,97821.53
2023-03-11T18:49:04.071Z,97831.19
2023-03-11T18:51:33.986Z,97844.25
2023-03-11T18:54:02.939Z,97837.59
2023-03-11T18:56:31.464Z,97840.09
2023-03-11T18:59:01.159Z,97843.66
2023-03-11T19:01:30.248Z,97854.72
2023-03-11T19:04:00.266Z,97879.31
2023-03-11T19:06:30.055Z,97813.03
2023-03-11T19:08:58.730Z,97764.25
2023-03-11T19:11:27.668Z,97850.69
2023-03-11T19:13:56.447Z,97894.41
2023-03-11T19:16:27.002Z,97887.06
2023-03-11T19:18:56.894Z,97887.28
2023-03-11T19:21:26.207Z,97882.88
2023-03-11T19:23:55.575Z,97896.19
2023-03-11T19:26:41.423Z,97876.69
2023-03-11T19:29:13.229Z,97919.34
2023-03-11T19:31:41.739Z,97915.81
2023-03-11T19:34:10.031Z,97847.47
2023-03-11T19:36:39.611Z,97863.28
2023-03-11T19:39:08.565Z,97940.50
2023-03-11T19:41:36.749Z,97920.06
2023-03-11T19:44:05.560Z,97933.38
2023-03-11T19:46:35.069Z,97908.19
2023-03-11T19:49:04.478Z,97928.38
2023-03-11T19:51:48.644Z,97935.50
2023-03-11T19:54:18.524Z,97966.19
2023-03-11T19:56:48.440Z,97957.03
2023-03-11T19:59:17.384Z,97957.84
2023-03-11T20:01:45.814Z,97931.72
2023-03-11T20:04:15.723Z,97924.47
2023-03-11T20:06:45.671Z,97948.69
2023-03-11T20:09:16.911Z,97979.97
2023-03-11T20:11:46.019Z,97983.50
2023-03-11T20:14:15.410Z,97978.41
2023-03-11T20:16:48.821Z,97996.47
2023-03-11T20:19:17.725Z,97914.13
2023-03-11T20:21:46.256Z,98013.72
2023-03-11T20:24:14.940Z,97981.72
2023-03-11T20:26:43.547Z,97956.31
2023-03-11T20:29:12.402Z,97996.25
2023-03-11T20:31:41.527Z,97969.13
2023-03-11T20:34:13.080Z,98017.06
2023-03-11T20:36:41.451Z,98012.66
2023-03-11T20:39:10.716Z,97954.16
2023-03-11T20:41:42.259Z,97986.72
2023-03-11T20:44:14.647Z,98025.16
2023-03-11T20:46:43.573Z,97975.06
2023-03-11T20:49:15.006Z,97991.09
2023-03-11T20:51:44.223Z,97987.19
2023-03-11T20:54:12.947Z,98042.72
2023-03-11T20:56:42.364Z,98017.34
2023-03-11T20:59:15.666Z,98008.44
2023-03-11T21:01:46.100Z,98067.66
2023-03-11T21:04:16.956Z,98066.47
2023-03-11T21:06:47.652Z,98061.00
2023-03-11T21:09:17.167Z,98051.94
2023-03-11T21:11:46.201Z,98077.75
2023-03-11T21:14:19.477Z,98052.00
2023-03-11T21:16:48.817Z,98074.88
2023-03-11T21:19:17.457Z,98071.38
2023-03-11T21:21:46.722Z,98069.34
2023-03-11T21:24:16.487Z,98082.56
2023-03-11T21:26:46.092Z,98084.19
2023-03-11T21:29:14.736Z,98080.25
2023-03-11T21:31:43.986Z,98088.22
2023-03-11T21:34:12.355Z,98094.47
2023-03-11T21:36:41.602Z,98048.66
2023-03-11T21:39:10.062Z,98079.28
2023-03-11T21:41:39.793Z,98103.38
2023-03-11T21:44:08.841Z,98113.34
2023-03-11T21:46:37.053Z,98101.09
2023-03-11T21:49:05.747Z,98098.09
2023-03-11T21:51:34.284Z,98061.28
2023-03-11T21:54:03.991Z,98123.84
2023-03-11T21:56:32.796Z,98113.19
2023-03-11T21:59:01.355Z,98085.41
2023-03-11T22:01:30.417Z,98140.53
2023-03-11T22:03:58.746Z,98148.22
2023-03-11T22:06:28.130Z,98149.47
2023-03-11T22:08:56.771Z,98152.44
2023-03-11T22:11:25.791Z,98121.63
2023-03-11T22:13:56.375Z,98143.25
2023-03-11T22:16:25.829Z,98167.88
2023-03-11T22:18:54.976Z,98162.97
2023-03-11T22:21:24.304Z,98170.19
2023-03-11T22:23:52.841Z,98172.41
2023-03-11T22:26:21.149Z,98118.59
2023-03-11T22:28:49.841Z,98165.44
2023-03-11T22:31:19.297Z,98180.94
2023-03-11T22:33:47.688Z,98098.38
2023-03-11T22:36:16.381Z,98188.47
2023-03-11T22:38:45.274Z,98200.50
2023-03-11T22:41:17.037Z,98200.56
2023-03-11T22:43:47.512Z,98143.94
2023-03-11T22:46:16.730Z,98204.25
2023-03-11T22:48:44.945Z,98197.16
2023-03-11T22:51:13.789Z,98205.81
2023-03-11T22:53:42.451Z,98165.25
2023-03-11T22:56:14.838Z,98210.84
2023-03-11T22:58:44.866Z,98156.78
2023-03-11T23:01:14.178Z,98206.44
2023-03-11T23:03:44.195Z,98212.41
2023-03-11T23:06:16.932Z,98184.00
2023-03-11T23:08:47.265Z,98234.94
2023-03-11T23:11:21.261Z,98230.25
2023-03-11T23:13:50.565Z,98235.47
2023-03-11T23:16:21.997Z,98149.28
2023-03-11T23:18:54.886Z,98249.47
2023-03-11T23:21:36.764Z,98195.19
2023-03-11T23:24:08.980Z,98233.56
2023-03-11T23:26:37.977Z,98196.84
2023-03-11T23:29:07.250Z,98198.53
2023-03-11T23:31:36.544Z,98238.72
2023-03-11T23:34:08.714Z,98249.16
2023-03-11T23:36:37.069Z,98257.50
2023-03-11T23:39:05.418Z,98201.63
2023-03-11T23:41:33.482Z,98232.97
2023-03-11T23:44:01.815Z,98246.84
2023-03-11T23:46:30.288Z,98223.34
2023-03-11T23:48:58.396Z,98276.28
2023-03-11T23:51:26.438Z,98290.06
2023-03-11T23:53:54.580Z,98280.03
2023-03-11T23:56:23.044Z,98288.28
2023-03-11T23:58:51.265Z,98282.13
